Suehiro Maru No.8 — JK5423 — position and weather

sailwx.info

Track history (hours):
 
Tides and Currents Weather Stations Pressure Air Temp Water Temp Dewpoint Dewpoint Depression Visibility Wind Speed Wind Dir Waves Ship Positions

Suehiro Maru No.8

Last reported at 2015-Jul-01 16:33 UTC. Time now 2015-Jul-01 16:56 UTC.
Position N 35°08' E 139°46'.

Length 88 m; draft 3.4 m.

Type: Cargo ship. MMSI: 431400446.

Date/timePositionNaut miles runAvg speedWind from/ knotsBaromVisibWave heightAir tempDewpointWater temp
2015-Jul-01 16:33N 35°08' E 139°46'1111.3
2015-Jul-01 15:33N 34°60' E 139°36'1311.7
2015-Jul-01 14:28N 34°52' E 139°24'236 5.4
2015-Jun-29 18:26N 34°32' E 134°38'  
2015-Jun-24 10:18N 34°07' E 134°47'254 6.6
2015-Jun-22 19:33N 35°28' E 139°39'0 0.0
2015-Jun-22 18:33N 35°28' E 139°39'0 0.0
2015-Jun-22 17:33N 35°28' E 139°39'0 0.0
2015-Jun-22 16:33N 35°28' E 139°39'0 0.0
2015-Jun-22 15:33N 35°28' E 139°39'0 0.0
2015-Jun-22 14:33N 35°28' E 139°39'0 0.0
2015-Jun-22 13:33N 35°28' E 139°39'0 0.0
2015-Jun-22 12:33N 35°28' E 139°39'0 0.0
2015-Jun-22 11:33N 35°28' E 139°39'0 0.0
2015-Jun-22 10:33N 35°28' E 139°39'0 0.0
2015-Jun-22 09:33N 35°28' E 139°39'0 0.0
2015-Jun-22 08:33N 35°28' E 139°39'0 0.0
2015-Jun-22 07:33N 35°28' E 139°39'0 0.0
2015-Jun-22 06:33N 35°28' E 139°39'0 0.0
2015-Jun-22 05:33N 35°28' E 139°39'0 0.0
2015-Jun-22 04:33N 35°28' E 139°39'2 2.4
2015-Jun-22 03:33N 35°27' E 139°42'4 4.3
2015-Jun-22 02:33N 35°23' E 139°44'0 0.0
2015-Jun-22 01:33N 35°23' E 139°44'0 0.0
2015-Jun-22 00:33N 35°23' E 139°44'0 0.1
2015-Jun-21 23:33N 35°23' E 139°44'0 0.1
2015-Jun-21 22:33N 35°23' E 139°44'0 0.1
2015-Jun-21 21:33N 35°23' E 139°44'10 9.7
2015-Jun-21 20:33N 35°13' E 139°47'1211.5
2015-Jun-21 19:33N 35°03' E 139°41'  
Track history (hours):
 
Tides and Currents Weather Stations Pressure Air Temp Water Temp Dewpoint Dewpoint Depression Visibility Wind Speed Wind Dir Waves Ship Positions

Suehiro Maru No.8

Last reported at 2015-Jul-01 16:33 UTC. Time now 2015-Jul-01 16:56 UTC.
Position N 35°08' E 139°46'.

Length 88 m; draft 3.4 m.

Type: Cargo ship. MMSI: 431400446.

Date/timePositionNaut miles runAvg speedWind from/ knotsBaromVisibWave heightAir tempDewpointWater temp
2015-Jul-01 16:33N 35°08' E 139°46'1111.3
2015-Jul-01 15:33N 34°60' E 139°36'1311.7
2015-Jul-01 14:28N 34°52' E 139°24'236 5.4
2015-Jun-29 18:26N 34°32' E 134°38'  
2015-Jun-24 10:18N 34°07' E 134°47'254 6.6
2015-Jun-22 19:33N 35°28' E 139°39'0 0.0
2015-Jun-22 18:33N 35°28' E 139°39'0 0.0
2015-Jun-22 17:33N 35°28' E 139°39'0 0.0
2015-Jun-22 16:33N 35°28' E 139°39'0 0.0
2015-Jun-22 15:33N 35°28' E 139°39'0 0.0
2015-Jun-22 14:33N 35°28' E 139°39'0 0.0
2015-Jun-22 13:33N 35°28' E 139°39'0 0.0
2015-Jun-22 12:33N 35°28' E 139°39'0 0.0
2015-Jun-22 11:33N 35°28' E 139°39'0 0.0
2015-Jun-22 10:33N 35°28' E 139°39'0 0.0
2015-Jun-22 09:33N 35°28' E 139°39'0 0.0
2015-Jun-22 08:33N 35°28' E 139°39'0 0.0
2015-Jun-22 07:33N 35°28' E 139°39'0 0.0
2015-Jun-22 06:33N 35°28' E 139°39'0 0.0
2015-Jun-22 05:33N 35°28' E 139°39'0 0.0
2015-Jun-22 04:33N 35°28' E 139°39'2 2.4
2015-Jun-22 03:33N 35°27' E 139°42'4 4.3
2015-Jun-22 02:33N 35°23' E 139°44'0 0.0
2015-Jun-22 01:33N 35°23' E 139°44'0 0.0
2015-Jun-22 00:33N 35°23' E 139°44'0 0.1
2015-Jun-21 23:33N 35°23' E 139°44'0 0.1
2015-Jun-21 22:33N 35°23' E 139°44'0 0.1
2015-Jun-21 21:33N 35°23' E 139°44'10 9.7
2015-Jun-21 20:33N 35°13' E 139°47'1211.5
2015-Jun-21 19:33N 35°03' E 139°41'  

Dump ship's entire track history